Pagrindinis puslapis
METAR-TAF:

METAR-TAF

Oro uostai :

Jaundė, Kamerūnas

platuma: 03-50N, ilguma: 011-31E, Aukštis: 751 m

Dabartinis oras

Ataskaita buvo paskelbta 43 minutes, ne 03:00 UTC
Vėjas 4 kt iš Pietvakarių
Temperatūra 24°C
Drėgmė 100%
Slėgis 1014 hPa
Matomumas: 8000 m
Su prošvaistėmis ne aukštis 600 ft

METAR: FKYS 280300Z 22004KT 8000 BKN006 24/24 Q1014 NOSIG

Laikas: 04:43 (03:43 UTC)

Prognozė

Ataskaita buvo paskelbta 4 valandos ir 43 minutes, ne 23:00 UTC
Prognozė galioja nuo 28 metu 00 UTC su 28 metu 24 UTC
Vėjas 4 kt iš Vakarų
Matomumas: 6000 m
Su prošvaistėmis ne aukštis 600 ft
Tikimybė 40% :
Laikinai
nuo 28 metu 03 UTC su 28 metu 07 UTC
Matomumas: 3000 m
rūkana
Tapsmas
nuo 28 metu 07 UTC su 28 metu 09 UTC
Su prošvaistėmis ne aukštis 1300 ft

TAF: FKYS 272300Z 2800/2824 26004KT 6000 BKN006 PROB40 TEMPO 2803/2807 3000 BR BECMG 2807/2809 BKN013

Orai ataskaitas ir orų prognozės (METAR, TAF).

turimą stotys yra geltonos ir raudonos taškus žemėlapyje.

Perkelti pele per norėdami pamatyti stoties vardą.

Tada spustelėkite, norėdami matyti oro stebėjimo ir prognozės.

Norėdami pakeisti žemėlapį: spustelėkite ant žalios mygtukų su juodo kryžiaus žemyn,; žalią mygtuką su brūkšneliu, jei norite nutolinti; arba žalių rodyklių gretimoms žemėlapius.


METAR-TAF: